Time;durP1;ratioP1;P1;durP2;ratioP2;P2;SDS_P1;SDS_P2;PMS_P1;PMS_P2;Temp;Humidity;BMP_temperature;BMP_pressure;BME280_temperature;BME280_humidity;BME280_pressure;Samples;Min_cycle;Max_cycle;Signal;HPM_P1;HPM_P2
2021/12/18 00:02:10;;;;;;;5.30;2.67;;;8.00;99.90;;;;;;5075445;28;20116;-68
2021/12/18 00:04:36;;;;;;;4.57;2.80;;;8.00;99.90;;;;;;5075575;28;20048;-68
2021/12/18 00:07:02;;;;;;;5.40;2.70;;;8.00;99.90;;;;;;5082212;28;20040;-67
2021/12/18 00:09:30;;;;;;;4.95;2.55;;;8.00;99.90;;;;;;5095311;28;20042;-68
2021/12/18 00:11:57;;;;;;;5.97;2.80;;;8.00;99.90;;;;;;5094477;28;20454;-68
2021/12/18 00:14:23;;;;;;;4.72;2.75;;;7.90;99.90;;;;;;5095373;28;20036;-68
2021/12/18 00:16:49;;;;;;;5.80;3.13;;;7.90;99.90;;;;;;5093662;28;20474;-67
2021/12/18 00:19:14;;;;;;;4.40;2.50;;;8.00;99.90;;;;;;5095040;28;20040;-68
2021/12/18 00:21:40;;;;;;;4.47;2.63;;;7.90;99.90;;;;;;5094866;28;20071;-68
2021/12/18 00:24:08;;;;;;;3.33;2.00;;;7.90;99.90;;;;;;5079165;28;20049;-68
2021/12/18 00:26:34;;;;;;;3.95;2.17;;;7.80;99.90;;;;;;5075038;28;20101;-67
2021/12/18 00:29:00;;;;;;;4.85;2.63;;;7.80;99.90;;;;;;5072421;28;20040;-68
2021/12/18 00:31:26;;;;;;;5.22;2.75;;;7.70;99.90;;;;;;5072791;28;20029;-67
2021/12/18 00:33:52;;;;;;;4.30;2.50;;;7.70;99.90;;;;;;5073411;28;20090;-67
2021/12/18 00:36:18;;;;;;;3.80;2.08;;;7.60;99.90;;;;;;5073586;28;20037;-68
2021/12/18 00:38:44;;;;;;;3.00;1.70;;;7.70;99.90;;;;;;5094693;28;20109;-68
2021/12/18 00:41:27;;;;;;;3.22;1.80;;;7.70;99.90;;;;;;5094648;28;20039;-68
2021/12/18 00:44:02;;;;;;;4.75;2.42;;;7.80;99.90;;;;;;5094818;28;20042;-68
2021/12/18 00:46:36;;;;;;;3.85;2.00;;;7.80;99.90;;;;;;5078364;28;20361;-67
2021/12/18 00:49:04;;;;;;;4.07;2.13;;;7.90;99.90;;;;;;5073310;28;20382;-68
2021/12/18 00:51:30;;;;;;;4.25;2.10;;;7.80;99.90;;;;;;5073437;28;20334;-68
2021/12/18 00:53:56;;;;;;;4.13;2.38;;;7.80;99.90;;;;;;5072259;28;20040;-68
2021/12/18 00:56:22;;;;;;;5.03;2.25;;;7.80;99.90;;;;;;5073849;28;20036;-71
2021/12/18 00:58:49;;;;;;;3.80;2.17;;;7.90;99.90;;;;;;5074988;28;20048;-68
2021/12/18 01:01:16;;;;;;;4.70;2.17;;;7.90;99.90;;;;;;5071886;28;20055;-71
2021/12/18 01:03:43;;;;;;;4.00;2.33;;;7.90;99.90;;;;;;5073029;28;20044;-68
2021/12/18 01:06:09;;;;;;;6.13;2.40;;;7.80;99.90;;;;;;5081535;28;20051;-68
2021/12/18 01:08:35;;;;;;;6.32;2.67;;;7.90;99.90;;;;;;5075318;28;20037;-68
2021/12/18 01:13:32;;;;;;;5.30;2.58;;;7.90;99.90;;;;;;5073800;28;20041;-68
2021/12/18 01:16:06;;;;;;;6.80;2.53;;;7.90;99.90;;;;;;5073669;28;20059;-68
2021/12/18 01:24:02;;;;;;;6.28;2.70;;;7.90;99.90;;;;;;5094206;28;20067;-68
2021/12/18 01:26:27;;;;;;;4.90;2.47;;;7.90;99.90;;;;;;5093911;28;20044;-68
2021/12/18 01:28:53;;;;;;;4.53;2.72;;;7.80;99.90;;;;;;5093671;28;20028;-68
2021/12/18 01:31:18;;;;;;;7.18;2.72;;;7.80;99.90;;;;;;5093979;28;20437;-68
2021/12/18 01:33:44;;;;;;;5.95;2.67;;;7.70;99.90;;;;;;5093956;28;20036;-68
2021/12/18 01:36:10;;;;;;;4.35;2.70;;;7.70;99.90;;;;;;5093884;28;20079;-68
2021/12/18 01:38:35;;;;;;;6.35;2.47;;;7.60;99.90;;;;;;5093762;28;20063;-68
2021/12/18 01:41:03;;;;;;;5.25;2.85;;;7.60;99.90;;;;;;5092482;28;20043;-69
2021/12/18 01:53:58;;;;;;;5.10;2.80;;;7.50;99.90;;;;;;5093757;28;20051;-69
2021/12/18 01:56:25;;;;;;;3.75;2.15;;;7.50;99.90;;;;;;5093157;28;20035;-69
2021/12/18 01:58:51;;;;;;;5.60;2.50;;;7.50;99.90;;;;;;5093406;28;20035;-69
2021/12/18 02:01:18;;;;;;;5.22;2.40;;;7.50;99.90;;;;;;5093645;28;20116;-68
2021/12/18 02:03:44;;;;;;;5.90;2.30;;;7.60;99.90;;;;;;5093688;28;20043;-68
2021/12/18 02:06:10;;;;;;;7.75;2.60;;;7.50;99.90;;;;;;5093379;28;20108;-68
2021/12/18 02:08:38;;;;;;;4.85;2.60;;;7.50;99.90;;;;;;5093358;28;20484;-69
2021/12/18 02:11:14;;;;;;;7.00;2.72;;;7.50;99.90;;;;;;5093347;28;20126;-69
2021/12/18 02:22:11;;;;;;;6.68;2.58;;;7.70;99.90;;;;;;5011310;28;20192;-68
2021/12/18 02:24:36;;;;;;;5.00;2.75;;;7.70;99.90;;;;;;5061172;28;20445;-68
2021/12/18 02:27:02;;;;;;;4.47;2.30;;;7.60;99.90;;;;;;5078918;28;20040;-69
2021/12/18 02:29:31;;;;;;;5.97;2.60;;;7.60;99.90;;;;;;5093292;28;20060;-69
2021/12/18 02:31:57;;;;;;;5.40;2.42;;;7.60;99.90;;;;;;5093139;28;20033;-68
2021/12/18 02:34:28;;;;;;;5.88;2.47;;;7.50;99.90;;;;;;5093013;28;20412;-69
2021/12/18 02:37:00;;;;;;;6.93;2.65;;;7.50;99.90;;;;;;5093232;28;20089;-68
2021/12/18 02:39:43;;;;;;;6.07;2.22;;;7.50;99.90;;;;;;5093093;28;20059;-68
2021/12/18 02:42:12;;;;;;;9.48;2.70;;;7.50;99.90;;;;;;5093248;28;20111;-69
2021/12/18 02:44:41;;;;;;;9.80;2.78;;;7.50;99.90;;;;;;5093284;28;20075;-68
2021/12/18 02:47:08;;;;;;;5.93;2.65;;;7.50;99.90;;;;;;5091957;28;20433;-68
2021/12/18 02:49:34;;;;;;;8.05;2.40;;;7.50;99.90;;;;;;5091864;28;20043;-68
2021/12/18 02:52:01;;;;;;;7.55;2.67;;;7.40;99.90;;;;;;5093299;28;20123;-68
2021/12/18 02:54:26;;;;;;;15.55;2.72;;;7.30;99.90;;;;;;5093527;28;20043;-68
2021/12/18 02:56:52;;;;;;;6.60;2.45;;;7.30;99.90;;;;;;5093089;28;20047;-68
2021/12/18 02:59:19;;;;;;;5.47;2.75;;;7.20;99.90;;;;;;5092782;28;20044;-68
2021/12/18 03:01:45;;;;;;;17.77;2.80;;;7.30;99.90;;;;;;5096268;28;20468;-68
2021/12/18 03:06:46;;;;;;;34.92;3.85;;;7.20;99.90;;;;;;5096886;28;20043;-68
2021/12/18 03:09:49;;;;;;;17.10;3.22;;;7.20;99.90;;;;;;5096532;28;20046;-68
2021/12/18 03:25:24;;;;;;;26.58;2.58;;;7.10;99.90;;;;;;5096585;28;20130;-68
2021/12/18 03:27:52;;;;;;;11.20;2.75;;;7.20;99.90;;;;;;5096101;28;20048;-68
2021/12/18 03:30:18;;;;;;;13.23;2.85;;;7.10;99.90;;;;;;5096068;28;20101;-68
2021/12/18 03:32:45;;;;;;;16.27;2.30;;;7.10;99.90;;;;;;5096259;28;20036;-68
2021/12/18 03:35:11;;;;;;;15.43;2.10;;;7.10;99.90;;;;;;5096313;28;20081;-68
2021/12/18 03:37:37;;;;;;;9.85;2.13;;;7.10;99.90;;;;;;5094951;28;20052;-68
2021/12/18 03:40:05;;;;;;;11.07;2.03;;;7.00;99.90;;;;;;5095401;28;20039;-69
2021/12/18 03:42:31;;;;;;;29.27;2.60;;;7.00;99.90;;;;;;5095726;28;20119;-69
2021/12/18 03:44:56;;;;;;;11.07;2.03;;;6.90;99.90;;;;;;5095770;28;20047;-68
2021/12/18 03:47:22;;;;;;;20.30;2.47;;;6.90;99.90;;;;;;5095441;28;20154;-69
2021/12/18 03:49:48;;;;;;;30.60;2.78;;;6.90;99.90;;;;;;5095482;28;20051;-68
2021/12/18 03:52:14;;;;;;;18.85;2.58;;;6.80;99.90;;;;;;5095698;28;20092;-68
2021/12/18 03:54:40;;;;;;;16.63;2.05;;;6.70;99.90;;;;;;5094567;28;20089;-69
2021/12/18 03:57:06;;;;;;;7.15;2.17;;;6.70;99.90;;;;;;5095683;28;20050;-69
2021/12/18 03:59:32;;;;;;;5.45;1.98;;;6.60;99.90;;;;;;5083064;28;20373;-69
2021/12/18 04:01:57;;;;;;;7.43;2.05;;;6.70;99.90;;;;;;5075264;28;20109;-68
2021/12/18 04:04:23;;;;;;;10.73;2.33;;;6.60;99.90;;;;;;5075193;28;20445;-69
2021/12/18 04:06:49;;;;;;;9.80;2.50;;;6.60;99.90;;;;;;5078468;28;20028;-68
2021/12/18 04:09:15;;;;;;;11.48;2.00;;;6.60;99.90;;;;;;5095227;28;20453;-69
2021/12/18 04:11:41;;;;;;;4.20;1.83;;;6.60;99.90;;;;;;5094522;28;20043;-69
2021/12/18 04:14:07;;;;;;;6.68;1.60;;;6.60;99.90;;;;;;5095470;28;20086;-69
2021/12/18 04:16:33;;;;;;;2.72;1.60;;;6.70;99.90;;;;;;5094966;28;20071;-69
2021/12/18 04:19:01;;;;;;;3.70;1.30;;;6.60;99.90;;;;;;5095004;28;20067;-69
2021/12/18 04:21:28;;;;;;;5.95;1.60;;;6.70;99.90;;;;;;5094854;28;20044;-69
2021/12/18 04:23:54;;;;;;;3.28;1.50;;;6.70;99.90;;;;;;5094882;28;20418;-69
2021/12/18 04:26:20;;;;;;;5.05;1.70;;;6.70;99.90;;;;;;5094704;28;20054;-69
2021/12/18 04:28:45;;;;;;;3.85;1.48;;;6.70;99.90;;;;;;5094282;28;20083;-69
2021/12/18 04:31:11;;;;;;;5.70;1.75;;;6.70;99.90;;;;;;5094948;28;20051;-69
2021/12/18 04:33:37;;;;;;;4.70;1.70;;;6.60;99.90;;;;;;5095235;28;20074;-69
2021/12/18 04:36:03;;;;;;;2.80;1.27;;;6.60;99.90;;;;;;5095009;28;20032;-70
2021/12/18 04:38:29;;;;;;;2.42;1.30;;;6.60;99.90;;;;;;5094562;28;20051;-70
2021/12/18 04:40:54;;;;;;;4.05;1.63;;;6.60;99.90;;;;;;5094913;28;20036;-69
2021/12/18 04:43:20;;;;;;;3.40;1.60;;;6.70;99.90;;;;;;5093652;28;20096;-69
2021/12/18 04:45:45;;;;;;;3.35;1.40;;;6.70;99.90;;;;;;5094468;28;20036;-69
2021/12/18 04:48:11;;;;;;;2.90;1.10;;;6.70;99.90;;;;;;5094312;28;20044;-69
2021/12/18 04:50:37;;;;;;;2.65;1.30;;;6.70;99.90;;;;;;5094540;28;20047;-69
2021/12/18 04:53:02;;;;;;;3.25;1.42;;;6.70;99.90;;;;;;5094330;28;20035;-70
2021/12/18 04:55:28;;;;;;;7.50;1.67;;;6.80;99.90;;;;;;5094698;28;20125;-70
2021/12/18 04:57:55;;;;;;;4.10;1.70;;;6.80;99.90;;;;;;5094191;28;20040;-69
2021/12/18 05:00:27;;;;;;;3.28;1.50;;;6.90;99.90;;;;;;5074967;28;20044;-69
2021/12/18 05:02:54;;;;;;;5.35;1.42;;;6.90;99.90;;;;;;5074428;28;20044;-69
2021/12/18 05:05:20;;;;;;;1.83;1.00;;;6.90;99.90;;;;;;5073391;28;20040;-69
2021/12/18 05:07:45;;;;;;;2.20;1.15;;;6.80;99.90;;;;;;5085082;28;20040;-70
2021/12/18 05:10:12;;;;;;;2.35;1.00;;;6.80;99.90;;;;;;5094098;28;20040;-70
2021/12/18 05:12:38;;;;;;;2.35;1.20;;;6.80;99.90;;;;;;5094514;28;20107;-70
2021/12/18 05:15:05;;;;;;;1.70;1.08;;;6.90;99.90;;;;;;5094524;28;20440;-70
2021/12/18 05:17:30;;;;;;;2.78;1.10;;;6.90;99.90;;;;;;5092767;28;20044;-70
2021/12/18 05:19:56;;;;;;;2.60;1.42;;;6.80;99.90;;;;;;5093882;28;20135;-70
2021/12/18 05:22:22;;;;;;;5.40;1.50;;;6.90;99.90;;;;;;5093821;28;20052;-70
2021/12/18 05:24:47;;;;;;;5.93;1.70;;;6.90;99.90;;;;;;5094073;28;20048;-71
2021/12/18 05:27:13;;;;;;;7.50;1.35;;;7.00;99.90;;;;;;5093853;28;20405;-70
2021/12/18 05:29:39;;;;;;;5.65;1.52;;;7.10;99.90;;;;;;5094009;28;20032;-70
2021/12/18 05:32:05;;;;;;;3.55;1.52;;;7.00;99.90;;;;;;5094109;28;20036;-69
2021/12/18 05:34:36;;;;;;;3.85;1.40;;;6.90;99.90;;;;;;5076142;28;20425;-69
2021/12/18 05:39:38;;;;;;;2.70;1.42;;;6.70;99.90;;;;;;5093868;28;20048;-69
2021/12/18 05:42:03;;;;;;;3.20;1.65;;;6.60;99.90;;;;;;5093825;28;20051;-70
2021/12/18 05:44:29;;;;;;;3.63;1.50;;;6.60;99.90;;;;;;5093843;28;20043;-70
2021/12/18 05:46:55;;;;;;;2.45;1.48;;;6.60;99.90;;;;;;5093501;28;20032;-70
2021/12/18 05:49:21;;;;;;;3.80;1.90;;;6.60;99.90;;;;;;5093344;28;20086;-69
2021/12/18 05:51:47;;;;;;;5.07;1.95;;;6.60;99.90;;;;;;5092883;28;20079;-70
2021/12/18 05:54:13;;;;;;;4.63;2.00;;;6.60;99.90;;;;;;5072762;28;20107;-70
2021/12/18 05:56:39;;;;;;;5.70;2.25;;;6.60;99.90;;;;;;5073919;28;20033;-70
2021/12/18 05:59:05;;;;;;;4.50;2.67;;;6.60;99.90;;;;;;5074074;28;20036;-70
2021/12/18 06:01:32;;;;;;;5.88;2.67;;;6.70;99.90;;;;;;5072891;28;20031;-70
2021/12/18 06:03:58;;;;;;;6.95;2.92;;;6.60;99.90;;;;;;5071466;28;20373;-69
2021/12/18 06:06:24;;;;;;;5.35;2.72;;;6.60;99.90;;;;;;5072812;28;20115;-70
2021/12/18 06:08:51;;;;;;;9.27;3.22;;;6.60;99.90;;;;;;5074344;28;20439;-69
2021/12/18 06:11:19;;;;;;;6.90;3.17;;;6.70;99.90;;;;;;5072694;28;20033;-70
2021/12/18 06:13:54;;;;;;;7.85;3.03;;;6.70;99.90;;;;;;5072890;28;20033;-70
2021/12/18 06:16:21;;;;;;;6.28;3.13;;;6.70;99.90;;;;;;5072711;28;20078;-70
2021/12/18 06:18:50;;;;;;;6.43;3.40;;;6.80;99.90;;;;;;5091638;28;20056;-69
2021/12/18 06:21:17;;;;;;;7.30;3.33;;;6.80;99.90;;;;;;5093198;28;20509;-69
2021/12/18 06:23:49;;;;;;;9.00;3.97;;;6.80;99.90;;;;;;5093623;28;20144;-70
2021/12/18 06:26:15;;;;;;;8.18;3.60;;;6.80;99.90;;;;;;5093532;28;20051;-69
2021/12/18 06:28:41;;;;;;;6.53;3.10;;;6.80;99.90;;;;;;5092157;28;20055;-70
2021/12/18 06:31:07;;;;;;;6.47;3.47;;;6.80;99.90;;;;;;5093462;28;20464;-70
2021/12/18 06:33:32;;;;;;;7.15;3.30;;;6.80;99.90;;;;;;5092292;28;20129;-70
2021/12/18 06:35:58;;;;;;;6.65;3.08;;;6.80;99.90;;;;;;5081450;28;20044;-70
2021/12/18 06:38:24;;;;;;;6.25;3.22;;;6.70;99.90;;;;;;5091835;28;20525;-70
2021/12/18 06:40:50;;;;;;;8.63;3.10;;;6.70;99.90;;;;;;5097319;28;20127;-70
2021/12/18 06:43:16;;;;;;;9.07;3.20;;;6.70;99.90;;;;;;5097264;28;20126;-70
2021/12/18 06:45:42;;;;;;;10.73;3.38;;;6.70;99.90;;;;;;5097210;28;20062;-69
2021/12/18 06:48:07;;;;;;;7.80;2.92;;;6.70;99.90;;;;;;5096787;28;20368;-70
2021/12/18 06:50:34;;;;;;;7.63;3.03;;;6.70;99.90;;;;;;5096843;28;20043;-70
2021/12/18 06:53:00;;;;;;;7.22;2.67;;;6.70;99.90;;;;;;5097062;28;20416;-69
2021/12/18 06:55:26;;;;;;;6.80;2.80;;;6.60;99.90;;;;;;5097015;28;20043;-70
2021/12/18 06:57:52;;;;;;;7.72;3.03;;;6.60;99.90;;;;;;5096782;28;20046;-70
2021/12/18 07:00:19;;;;;;;9.82;2.97;;;6.70;99.90;;;;;;5077850;28;20338;-70
2021/12/18 07:02:45;;;;;;;9.05;3.10;;;6.60;99.90;;;;;;5076555;28;20120;-71
2021/12/18 07:05:11;;;;;;;10.30;3.25;;;6.60;99.90;;;;;;5077638;28;20072;-69
2021/12/18 07:07:37;;;;;;;8.10;3.08;;;6.60;99.90;;;;;;5085205;28;20048;-70
2021/12/18 07:10:08;;;;;;;6.93;3.17;;;6.70;99.90;;;;;;5096777;28;20035;-70
2021/12/18 07:12:34;;;;;;;9.73;3.78;;;6.70;99.90;;;;;;5095793;28;20506;-69
2021/12/18 07:15:00;;;;;;;8.63;3.92;;;6.80;99.90;;;;;;5096581;28;20047;-69
2021/12/18 07:17:26;;;;;;;8.80;3.75;;;6.80;99.90;;;;;;5096293;28;20141;-69
2021/12/18 07:19:51;;;;;;;10.05;4.30;;;6.80;99.90;;;;;;5095805;28;20437;-70
2021/12/18 07:22:17;;;;;;;8.50;3.67;;;6.80;99.90;;;;;;5096125;28;20063;-69
2021/12/18 07:24:43;;;;;;;13.32;3.63;;;6.80;99.90;;;;;;5096484;28;20151;-69
2021/12/18 07:27:08;;;;;;;9.70;3.92;;;6.80;99.90;;;;;;5095861;28;20063;-69
2021/12/18 07:29:34;;;;;;;9.57;4.07;;;6.80;99.90;;;;;;5096096;28;20143;-69
2021/12/18 07:32:00;;;;;;;8.20;3.92;;;6.80;99.90;;;;;;5095681;28;20043;-69
2021/12/18 07:34:25;;;;;;;11.13;4.22;;;6.90;99.90;;;;;;5096324;28;20190;-69
2021/12/18 07:36:51;;;;;;;12.48;4.38;;;6.80;99.90;;;;;;5082353;28;20071;-69
2021/12/18 07:39:17;;;;;;;11.20;4.70;;;6.90;99.90;;;;;;5076106;28;20047;-69
2021/12/18 07:41:43;;;;;;;8.88;3.63;;;6.90;99.90;;;;;;5075276;28;20033;-70
2021/12/18 07:44:09;;;;;;;11.38;4.15;;;6.80;99.90;;;;;;5075358;28;20784;-68
2021/12/18 07:46:36;;;;;;;9.85;3.97;;;6.80;99.90;;;;;;5074800;28;20076;-68
2021/12/18 07:49:03;;;;;;;10.00;3.90;;;6.90;99.90;;;;;;5076369;28;20043;-68
2021/12/18 07:51:29;;;;;;;7.60;3.90;;;6.90;99.90;;;;;;5075685;28;20040;-68
2021/12/18 07:53:55;;;;;;;8.98;3.55;;;6.90;99.90;;;;;;5075287;28;20457;-68
2021/12/18 07:56:20;;;;;;;7.50;3.42;;;6.90;99.90;;;;;;5075410;28;20094;-68
2021/12/18 07:58:46;;;;;;;8.65;4.25;;;7.00;99.90;;;;;;5092506;28;20479;-68
2021/12/18 08:01:12;;;;;;;10.38;4.22;;;6.90;99.90;;;;;;5086152;28;20135;-70
2021/12/18 08:03:37;;;;;;;8.77;3.42;;;7.00;99.90;;;;;;5075375;28;20041;-70
2021/12/18 08:06:03;;;;;;;7.53;3.53;;;7.00;99.90;;;;;;5074918;28;20029;-70
2021/12/18 08:08:29;;;;;;;9.05;3.83;;;7.00;99.90;;;;;;5076558;28;20439;-70
2021/12/18 08:10:55;;;;;;;8.65;3.85;;;6.90;99.90;;;;;;5074672;28;20664;-70
2021/12/18 08:13:21;;;;;;;8.20;3.55;;;6.90;99.90;;;;;;5074638;28;20111;-70
2021/12/18 08:15:47;;;;;;;9.68;3.72;;;6.90;99.90;;;;;;5074716;28;20120;-70
2021/12/18 08:18:12;;;;;;;8.55;3.38;;;6.90;99.90;;;;;;5076985;28;20032;-69
2021/12/18 08:20:38;;;;;;;8.73;3.90;;;6.90;99.90;;;;;;5074848;28;20441;-70
2021/12/18 08:23:05;;;;;;;8.45;3.58;;;6.90;99.90;;;;;;5074156;28;20104;-70
2021/12/18 08:25:31;;;;;;;7.50;3.40;;;6.90;99.90;;;;;;5074784;28;20404;-70
2021/12/18 08:28:01;;;;;;;9.63;2.95;;;6.90;99.90;;;;;;5076494;28;20098;-70
2021/12/18 08:30:28;;;;;;;9.23;3.05;;;6.90;99.90;;;;;;5074135;28;20374;-70
2021/12/18 08:32:53;;;;;;;7.38;3.05;;;6.90;99.90;;;;;;5074684;28;20111;-70
2021/12/18 08:35:19;;;;;;;8.35;3.03;;;6.90;99.90;;;;;;5074604;28;20551;-70
2021/12/18 08:37:45;;;;;;;8.68;3.13;;;6.90;99.90;;;;;;5081971;28;20167;-70
2021/12/18 08:40:11;;;;;;;7.82;3.28;;;6.90;99.90;;;;;;5073590;28;20044;-71
2021/12/18 08:42:38;;;;;;;8.60;3.20;;;6.90;99.90;;;;;;5074822;28;20370;-70
2021/12/18 08:45:04;;;;;;;13.57;6.80;;;6.90;99.90;;;;;;5076707;28;20047;-71
2021/12/18 08:47:30;;;;;;;9.95;5.38;;;6.90;99.90;;;;;;5080754;28;20122;-70
2021/12/18 08:49:56;;;;;;;10.50;4.70;;;6.90;99.90;;;;;;5094572;28;20180;-70
2021/12/18 08:52:21;;;;;;;17.02;8.55;;;6.90;99.90;;;;;;5075839;28;20033;-70
2021/12/18 08:54:47;;;;;;;16.15;7.32;;;6.90;99.90;;;;;;5074250;28;20166;-70
2021/12/18 08:57:13;;;;;;;21.42;9.82;;;6.90;99.90;;;;;;5078457;28;20445;-70
2021/12/18 08:59:39;;;;;;;12.68;6.22;;;6.90;99.90;;;;;;5094059;28;20195;-72
2021/12/18 09:02:06;;;;;;;11.68;5.35;;;7.00;99.90;;;;;;5093541;28;20043;-72
2021/12/18 09:04:32;;;;;;;13.80;6.30;;;7.00;99.90;;;;;;5088085;28;20499;-73
2021/12/18 09:06:58;;;;;;;13.82;6.35;;;7.00;99.90;;;;;;5094372;28;20036;-73
2021/12/18 09:09:23;;;;;;;14.15;6.57;;;7.10;99.90;;;;;;5093872;28;20059;-74
2021/12/18 09:11:49;;;;;;;12.18;5.45;;;7.00;99.90;;;;;;5092249;28;20035;-72
2021/12/18 09:14:15;;;;;;;17.73;8.35;;;7.10;99.90;;;;;;5073700;28;20040;-72
2021/12/18 09:16:40;;;;;;;14.88;6.25;;;7.10;99.90;;;;;;5074733;28;20048;-72
2021/12/18 09:19:06;;;;;;;11.82;4.63;;;7.10;99.90;;;;;;5092556;28;20036;-72
2021/12/18 09:21:32;;;;;;;11.73;3.90;;;7.20;99.90;;;;;;5093309;28;20051;-73
2021/12/18 09:23:57;;;;;;;14.65;5.60;;;7.10;99.90;;;;;;5092158;28;20454;-72
2021/12/18 09:26:23;;;;;;;11.60;5.00;;;7.20;99.90;;;;;;5073434;28;20446;-73
2021/12/18 09:28:49;;;;;;;13.07;4.55;;;7.20;99.90;;;;;;5088784;28;20087;-73
2021/12/18 09:31:15;;;;;;;12.43;4.32;;;7.30;99.90;;;;;;5092170;28;20044;-72
2021/12/18 09:33:41;;;;;;;8.73;3.35;;;7.30;99.90;;;;;;5091975;28;20085;-72
2021/12/18 09:36:07;;;;;;;12.00;5.43;;;7.30;99.90;;;;;;5091843;28;20504;-73
2021/12/18 09:38:33;;;;;;;10.80;4.78;;;7.30;99.90;;;;;;5093214;28;20071;-73
2021/12/18 09:41:00;;;;;;;10.88;4.20;;;7.40;99.90;;;;;;5094127;28;20082;-72
2021/12/18 09:43:26;;;;;;;9.77;3.90;;;7.40;99.90;;;;;;5093974;28;20089;-72
2021/12/18 09:45:53;;;;;;;10.68;4.55;;;7.40;99.90;;;;;;5093740;28;20111;-72
2021/12/18 09:48:21;;;;;;;8.57;3.70;;;7.40;99.90;;;;;;5093259;28;20040;-72
2021/12/18 09:50:55;;;;;;;9.32;4.07;;;7.50;99.90;;;;;;5093829;28;20040;-72
2021/12/18 09:53:21;;;;;;;9.10;3.97;;;7.40;99.90;;;;;;5093798;28;20044;-72
2021/12/18 09:55:46;;;;;;;8.88;3.67;;;7.50;99.90;;;;;;5086515;28;20282;-71
2021/12/18 09:58:12;;;;;;;12.05;4.53;;;7.50;99.90;;;;;;5081967;28;20024;-74
2021/12/18 10:00:38;;;;;;;9.82;3.58;;;7.50;99.90;;;;;;5094002;28;20468;-72
2021/12/18 10:03:04;;;;;;;10.15;4.22;;;7.60;99.90;;;;;;5094098;28;20029;-73
2021/12/18 10:05:32;;;;;;;9.68;4.13;;;7.70;99.90;;;;;;5092338;28;20036;-66
2021/12/18 10:08:10;;;;;;;14.13;4.65;;;7.70;99.90;;;;;;5090568;28;20346;-73
2021/12/18 10:10:38;;;;;;;11.20;4.05;;;7.70;99.90;;;;;;5094791;28;20116;-73
2021/12/18 10:13:10;;;;;;;11.52;4.65;;;7.70;99.90;;;;;;5096906;28;20044;-74
2021/12/18 10:15:38;;;;;;;10.75;4.25;;;7.80;99.90;;;;;;5096192;28;20464;-73
2021/12/18 10:18:06;;;;;;;12.93;4.50;;;7.80;99.90;;;;;;5096052;28;20035;-74
2021/12/18 10:20:32;;;;;;;10.32;4.65;;;7.90;99.90;;;;;;5097572;28;20035;-74
2021/12/18 10:23:02;;;;;;;9.38;4.60;;;7.90;99.90;;;;;;5097483;28;20488;-74
2021/12/18 10:25:31;;;;;;;10.85;4.93;;;7.90;99.90;;;;;;5097624;28;20044;-74
2021/12/18 10:28:09;;;;;;;11.88;6.03;;;8.00;99.90;;;;;;5097040;28;20086;-74
2021/12/18 10:30:42;;;;;;;13.50;6.40;;;8.00;99.90;;;;;;5097714;28;20040;-74
2021/12/18 10:33:11;;;;;;;11.65;6.07;;;8.00;99.90;;;;;;5096672;28;20473;-73
2021/12/18 10:35:53;;;;;;;14.95;6.38;;;8.10;99.90;;;;;;5097481;28;20040;-72
2021/12/18 10:38:50;;;;;;;13.40;6.85;;;8.10;99.90;;;;;;5096752;28;20028;-72
2021/12/18 10:41:28;;;;;;;13.68;5.95;;;8.10;99.90;;;;;;5097569;28;20157;-72
2021/12/18 10:43:55;;;;;;;16.20;7.00;;;8.10;99.90;;;;;;5095992;28;20483;-71
2021/12/18 10:46:21;;;;;;;17.13;7.43;;;8.20;99.90;;;;;;5096876;28;20381;-71
2021/12/18 10:48:55;;;;;;;17.92;8.00;;;8.20;99.90;;;;;;5096669;28;20174;-71
2021/12/18 10:51:24;;;;;;;13.00;7.30;;;8.30;99.90;;;;;;5095952;28;20040;-71
2021/12/18 10:53:50;;;;;;;12.98;6.95;;;8.20;99.90;;;;;;5080741;28;20787;-69
2021/12/18 10:56:29;;;;;;;16.33;7.47;;;8.30;99.90;;;;;;5097356;28;20044;-67
2021/12/18 10:58:55;;;;;;;13.68;7.25;;;8.30;99.90;;;;;;5079845;28;20044;-68
2021/12/18 11:01:21;;;;;;;13.70;6.60;;;8.40;99.90;;;;;;5075136;28;20449;-68
2021/12/18 11:03:51;;;;;;;12.57;6.65;;;8.40;99.90;;;;;;5076302;28;20090;-68
2021/12/18 11:06:35;;;;;;;12.82;5.95;;;8.40;99.90;;;;;;5076658;28;20136;-71
2021/12/18 11:09:09;;;;;;;12.53;5.57;;;8.40;99.90;;;;;;5081294;28;20465;-71
2021/12/18 11:14:22;;;;;;;13.98;6.30;;;8.40;99.90;;;;;;5073504;28;20041;-72
2021/12/18 11:16:50;;;;;;;12.88;5.80;;;8.40;99.90;;;;;;5076217;28;20078;-72
2021/12/18 11:19:21;;;;;;;11.95;5.70;;;8.40;99.90;;;;;;5096112;28;20040;-72
2021/12/18 11:21:50;;;;;;;11.20;5.43;;;8.40;99.90;;;;;;5095791;28;20063;-71
2021/12/18 11:24:16;;;;;;;12.57;5.60;;;8.40;99.90;;;;;;5096466;28;20064;-71
2021/12/18 11:26:57;;;;;;;10.77;4.90;;;8.40;99.90;;;;;;5096581;28;20040;-71
2021/12/18 11:29:41;;;;;;;10.15;5.15;;;8.50;99.90;;;;;;5094649;28;20481;-71
2021/12/18 11:32:08;;;;;;;;;;;8.40;99.90;;;;;;5096972;28;20122;-71
2021/12/18 11:34:36;;;;;;;15.45;5.75;;;8.40;99.90;;;;;;5094309;28;19916;-71
2021/12/18 11:37:05;;;;;;;16.25;6.22;;;8.40;99.90;;;;;;5079289;28;20064;-72
2021/12/18 11:39:31;;;;;;;14.05;6.25;;;8.40;99.90;;;;;;5094034;28;20044;-71
2021/12/18 11:41:57;;;;;;;15.32;7.78;;;8.50;99.90;;;;;;5094103;28;20119;-72
2021/12/18 11:44:27;;;;;;;16.25;7.93;;;8.50;99.90;;;;;;5094718;28;20120;-72
2021/12/18 11:46:53;;;;;;;11.75;6.85;;;8.50;99.90;;;;;;5079266;28;20127;-72
2021/12/18 11:49:21;;;;;;;12.43;6.55;;;8.50;99.90;;;;;;5078170;28;20190;-72
2021/12/18 11:52:03;;;;;;;11.50;6.00;;;8.60;99.90;;;;;;5075627;28;20366;-72
2021/12/18 11:54:50;;;;;;;8.75;5.05;;;8.60;99.90;;;;;;5074649;28;20466;-72
2021/12/18 11:57:38;;;;;;;9.63;5.25;;;8.70;99.90;;;;;;5078881;28;20048;-71
2021/12/18 12:00:28;;;;;;;6.85;3.63;;;8.70;99.90;;;;;;5077015;28;20330;-71
2021/12/18 12:02:56;;;;;;;5.22;2.95;;;8.70;99.90;;;;;;5072916;28;20492;-71
2021/12/18 12:05:40;;;;;;;5.10;2.65;;;8.70;99.90;;;;;;5073799;28;20044;-71
2021/12/18 12:08:36;;;;;;;4.55;2.58;;;8.70;99.90;;;;;;5077117;28;20044;-71
2021/12/18 12:11:25;;;;;;;4.47;2.50;;;8.70;99.90;;;;;;5075089;28;20326;-71
2021/12/18 12:14:13;;;;;;;5.93;2.50;;;8.80;99.90;;;;;;5093400;28;20039;-71
2021/12/18 12:16:45;;;;;;;3.13;2.30;;;8.80;99.90;;;;;;5093853;28;20044;-70
2021/12/18 12:19:14;;;;;;;4.03;1.90;;;8.80;99.90;;;;;;5077649;28;20040;-71
2021/12/18 12:21:45;;;;;;;5.55;2.38;;;8.80;99.90;;;;;;5087566;28;20071;-71
2021/12/18 12:24:14;;;;;;;4.78;2.90;;;8.80;99.90;;;;;;5074192;28;20380;-70
2021/12/18 12:26:39;;;;;;;5.50;3.28;;;8.90;99.90;;;;;;5074952;28;20052;-70
2021/12/18 12:29:07;;;;;;;4.32;2.70;;;8.90;99.90;;;;;;5082184;28;20473;-70
2021/12/18 12:31:33;;;;;;;5.40;3.10;;;9.00;99.90;;;;;;5073695;28;20342;-69
2021/12/18 12:34:18;;;;;;;6.03;3.38;;;9.00;99.90;;;;;;5073487;28;20380;-71
2021/12/18 12:36:45;;;;;;;6.35;3.08;;;9.00;99.90;;;;;;5074692;28;20040;-73
2021/12/18 12:39:14;;;;;;;5.53;3.30;;;9.00;99.90;;;;;;5074282;28;20047;-69
2021/12/18 12:41:50;;;;;;;5.53;3.20;;;8.90;99.90;;;;;;5072416;28;20087;-72
2021/12/18 12:44:22;;;;;;;6.55;3.88;;;8.90;99.90;;;;;;5062391;28;20445;-71
2021/12/18 12:46:48;;;;;;;4.85;3.00;;;8.90;99.90;;;;;;5093319;28;20055;-72
2021/12/18 12:49:20;;;;;;;8.63;6.70;;;8.90;99.90;;;;;;5092656;28;20113;-72
2021/12/18 12:51:58;;;;;;;4.78;3.17;;;8.90;99.90;;;;;;5093442;28;20107;-72
2021/12/18 12:54:42;;;;;;;4.88;2.60;;;8.90;99.90;;;;;;5093805;28;20101;-72
2021/12/18 12:57:22;;;;;;;5.50;2.70;;;8.80;99.90;;;;;;5094467;28;20049;-72
2021/12/18 12:59:54;;;;;;;6.50;3.00;;;8.90;99.90;;;;;;5094228;28;20319;-72
2021/12/18 13:02:21;;;;;;;5.63;2.70;;;8.90;99.90;;;;;;5093249;28;20052;-72
2021/12/18 13:04:47;;;;;;;4.47;2.72;;;8.90;99.90;;;;;;5094672;28;20097;-72
2021/12/18 13:07:13;;;;;;;5.40;2.63;;;8.90;99.90;;;;;;5094356;28;20040;-72
2021/12/18 13:09:46;;;;;;;7.70;3.90;;;8.80;99.90;;;;;;5094190;28;20035;-72
2021/12/18 13:12:12;;;;;;;8.05;3.90;;;8.90;99.90;;;;;;5094366;28;20035;-72
2021/12/18 13:14:44;;;;;;;6.97;3.55;;;8.90;99.90;;;;;;5094673;28;20043;-72
2021/12/18 13:17:36;;;;;;;10.27;3.80;;;8.90;99.90;;;;;;5093963;28;20130;-72
2021/12/18 13:20:05;;;;;;;5.97;3.35;;;8.90;99.90;;;;;;5089196;28;20378;-71
2021/12/18 13:22:33;;;;;;;9.60;5.78;;;8.90;99.90;;;;;;5093564;28;20063;-72
2021/12/18 13:25:12;;;;;;;7.78;4.00;;;8.90;99.90;;;;;;5094344;28;20184;-72
2021/12/18 13:27:41;;;;;;;7.95;4.45;;;9.00;99.90;;;;;;5093771;28;20044;-72
2021/12/18 13:30:09;;;;;;;6.85;4.00;;;9.00;99.90;;;;;;5094062;28;20428;-72
2021/12/18 13:32:35;;;;;;;7.28;3.97;;;9.00;99.90;;;;;;5094241;28;20077;-72
2021/12/18 13:35:01;;;;;;;7.03;4.50;;;9.00;99.90;;;;;;5094145;28;20128;-72
2021/12/18 13:37:27;;;;;;;7.43;4.90;;;9.00;99.90;;;;;;5093791;28;20051;-72
2021/12/18 13:39:53;;;;;;;6.53;4.32;;;9.00;99.90;;;;;;5093778;28;20493;-72
2021/12/18 13:42:20;;;;;;;7.25;4.00;;;9.00;99.90;;;;;;5094015;28;20036;-72
2021/12/18 13:44:53;;;;;;;8.82;3.95;;;9.00;99.90;;;;;;5093793;28;20043;-72
2021/12/18 13:47:24;;;;;;;9.60;4.35;;;9.00;99.90;;;;;;5092720;28;20054;-72
2021/12/18 13:50:07;;;;;;;6.53;3.33;;;9.00;99.90;;;;;;5093369;28;20040;-71